NTJ weather

Manti-Ephraim Airport
Manti, Utah, United States

Public forecast

Using degrees Fahrenheit for public forecast. Weather courtesy of forecast.io.

Closest aviation weather report (METAR) to Manti-Ephraim Airport

Closest report is Delta Municipal Airport, 41.6 nm (77.0 km) W. Retrieved 2020/06/02 23:15 UTC (8 minutes ago):

KDTA 022315Z AUTO 23004KT 10SM CLR 30/M02 A3014 RMK AO1

Closest aviation forecast (TAF) to Manti-Ephraim Airport

Closest forecast is Provo Municipal Airport, 53.7 nm (99.4 km) N. Retrieved 2020/06/02 18:42 UTC (5 hours ago):

TAF KPVU 021739Z 0218/0318 VRB05KT P6SM SCT150 FM021900 33007KT P6SM SCT150 FM030300 VRB05KT P6SM SCT150